createdAt,value
2023-05-05T00:00:15.641Z,71.10
2023-05-05T00:02:42.278Z,71.98
2023-05-05T00:05:08.984Z,71.92
2023-05-05T00:07:35.364Z,71.99
2023-05-05T00:10:01.939Z,70.69
2023-05-05T00:12:28.627Z,71.92
2023-05-05T00:14:55.069Z,70.65
2023-05-05T00:17:21.719Z,71.40
2023-05-05T00:19:48.101Z,71.93
2023-05-05T00:22:15.279Z,72.38
2023-05-05T00:24:41.646Z,72.93
2023-05-05T00:27:08.030Z,72.59
2023-05-05T00:29:34.427Z,72.74
2023-05-05T00:32:00.882Z,73.47
2023-05-05T00:34:27.270Z,73.93
2023-05-05T00:36:54.097Z,73.58
2023-05-05T00:39:20.566Z,73.60
2023-05-05T00:41:46.923Z,74.05
2023-05-05T00:44:13.308Z,74.73
2023-05-05T00:46:41.717Z,74.31
2023-05-05T00:49:08.363Z,75.18
2023-05-05T00:51:35.048Z,74.63
2023-05-05T00:54:01.702Z,74.26
2023-05-05T00:56:28.480Z,74.20
2023-05-05T00:58:55.066Z,74.48
2023-05-05T01:01:21.545Z,74.69
2023-05-05T01:03:48.059Z,73.88
2023-05-05T01:06:37.603Z,74.17
2023-05-05T01:09:17.141Z,73.99
2023-05-05T01:11:56.347Z,74.36
2023-05-05T01:14:36.794Z,74.72
2023-05-05T01:17:23.921Z,74.93
2023-05-05T01:23:06.243Z,74.52
2023-05-05T01:26:10.385Z,74.63
2023-05-05T01:29:23.762Z,74.64
2023-05-05T01:31:54.612Z,75.01
2023-05-05T01:34:26.258Z,75.68
2023-05-05T01:36:58.283Z,75.65
2023-05-05T01:39:30.411Z,75.79
2023-05-05T01:41:59.988Z,76.46
2023-05-05T01:44:28.273Z,76.86
2023-05-05T01:46:55.762Z,77.07
2023-05-05T01:49:22.801Z,76.81
2023-05-05T01:51:49.954Z,76.94
2023-05-05T01:54:18.685Z,76.96
2023-05-05T01:56:46.369Z,77.75
2023-05-05T01:59:13.520Z,77.35
2023-05-05T02:01:41.797Z,77.49
2023-05-05T02:04:12.905Z,78.25
2023-05-05T02:06:40.364Z,78.08
2023-05-05T02:09:08.503Z,77.64
2023-05-05T02:11:35.155Z,77.99
2023-05-05T02:14:02.290Z,77.96
2023-05-05T02:16:31.098Z,77.48
2023-05-05T02:19:01.347Z,78.18
2023-05-05T02:21:28.608Z,78.56
2023-05-05T02:23:55.639Z,78.18
2023-05-05T02:26:23.694Z,79.08
2023-05-05T02:29:12.047Z,79.57
2023-05-05T02:31:44.296Z,80.20
2023-05-05T02:34:13.187Z,80.54
2023-05-05T02:36:42.357Z,80.63
2023-05-05T02:39:26.144Z,80.45
2023-05-05T02:41:55.215Z,81.36
2023-05-05T02:44:24.674Z,81.23
2023-05-05T02:46:51.820Z,81.30
2023-05-05T02:49:18.298Z,81.40
2023-05-05T02:51:44.675Z,81.70
2023-05-05T02:54:11.283Z,82.00
2023-05-05T02:56:42.944Z,81.74
2023-05-05T02:59:29.636Z,82.04
2023-05-05T03:02:17.804Z,82.37
2023-05-05T03:04:51.682Z,81.99
2023-05-05T03:07:25.630Z,82.59
2023-05-05T03:10:03.359Z,82.56
2023-05-05T03:12:37.478Z,83.21
2023-05-05T03:15:08.653Z,83.07
2023-05-05T03:17:36.734Z,83.36
2023-05-05T03:20:06.925Z,83.12
2023-05-05T03:22:37.420Z,83.51
2023-05-05T03:25:05.035Z,83.42
2023-05-05T03:27:31.514Z,83.20
2023-05-05T03:29:57.965Z,84.22
2023-05-05T03:32:24.450Z,83.90
2023-05-05T03:34:50.861Z,84.48
2023-05-05T03:37:17.219Z,84.45
2023-05-05T03:39:43.600Z,84.68
2023-05-05T03:42:10.006Z,84.61
2023-05-05T03:44:36.545Z,84.62
2023-05-05T03:47:02.958Z,84.56
2023-05-05T03:49:29.353Z,84.75
2023-05-05T03:51:55.718Z,84.62
2023-05-05T03:54:22.145Z,85.11
2023-05-05T03:56:48.587Z,84.84
2023-05-05T03:59:14.951Z,85.16
2023-05-05T04:01:41.489Z,85.10
2023-05-05T04:04:09.433Z,85.39
2023-05-05T04:06:35.939Z,85.52
2023-05-05T04:09:02.728Z,85.70
2023-05-05T04:11:29.187Z,85.92
2023-05-05T04:13:55.569Z,85.78
2023-05-05T04:16:22.027Z,85.66
2023-05-05T04:18:48.491Z,86.09
2023-05-05T04:21:14.939Z,85.94
2023-05-05T04:23:41.321Z,86.27
2023-05-05T04:26:07.773Z,86.27
2023-05-05T04:28:34.279Z,86.56
2023-05-05T04:31:01.379Z,86.50
2023-05-05T04:33:27.804Z,86.83
2023-05-05T04:35:54.182Z,86.37
2023-05-05T04:38:21.109Z,86.50
2023-05-05T04:40:47.568Z,86.69
2023-05-05T04:43:13.982Z,86.71
2023-05-05T04:45:40.376Z,86.53
2023-05-05T04:48:06.939Z,86.98
2023-05-05T04:50:33.322Z,86.73
2023-05-05T04:52:59.791Z,87.22
2023-05-05T04:55:26.190Z,87.03
2023-05-05T04:57:52.550Z,87.08
2023-05-05T05:00:19.070Z,87.04
2023-05-05T05:02:45.556Z,87.11
2023-05-05T05:05:12.185Z,87.45
2023-05-05T05:07:38.609Z,87.24
2023-05-05T05:10:05.730Z,87.11
2023-05-05T05:12:32.331Z,86.99
2023-05-05T05:14:58.793Z,87.23
2023-05-05T05:17:26.763Z,87.51
2023-05-05T05:19:55.140Z,87.37
2023-05-05T05:22:21.791Z,87.54
2023-05-05T05:24:48.168Z,87.80
2023-05-05T05:27:14.540Z,87.22
2023-05-05T05:29:41.012Z,87.13
2023-05-05T05:32:07.469Z,87.83
2023-05-05T05:34:33.933Z,87.70
2023-05-05T05:37:00.398Z,87.51
2023-05-05T05:39:26.861Z,87.76
2023-05-05T05:41:53.277Z,87.53
2023-05-05T05:44:19.834Z,87.90
2023-05-05T05:46:46.339Z,87.67
2023-05-05T05:49:12.868Z,88.20
2023-05-05T05:51:39.348Z,87.68
2023-05-05T05:54:05.783Z,88.11
2023-05-05T05:56:32.236Z,87.68
2023-05-05T05:58:58.679Z,87.78
2023-05-05T06:01:25.102Z,87.49
2023-05-05T06:03:51.672Z,87.80
2023-05-05T06:06:18.209Z,87.62
2023-05-05T06:08:44.666Z,87.77
2023-05-05T06:11:11.053Z,87.72
2023-05-05T06:13:37.506Z,86.45
2023-05-05T06:16:04.055Z,87.11
2023-05-05T06:18:30.420Z,86.28
2023-05-05T06:20:57.249Z,86.37
2023-05-05T06:23:23.745Z,86.04
2023-05-05T06:25:50.837Z,86.68
2023-05-05T06:28:18.655Z,86.70
2023-05-05T06:30:45.058Z,86.16
2023-05-05T06:33:11.420Z,85.56
2023-05-05T06:35:37.878Z,85.33
2023-05-05T06:38:04.350Z,84.76
2023-05-05T06:40:31.815Z,84.88
2023-05-05T06:42:58.190Z,86.34
2023-05-05T06:45:24.553Z,85.13
2023-05-05T06:47:50.976Z,84.04
2023-05-05T06:50:17.511Z,84.24
2023-05-05T06:52:43.941Z,83.76
2023-05-05T06:55:10.447Z,82.79
2023-05-05T06:57:36.821Z,81.95
2023-05-05T07:00:09.778Z,81.84
2023-05-05T07:02:36.482Z,81.64
2023-05-05T07:05:03.009Z,81.01
2023-05-05T07:07:29.437Z,80.74
2023-05-05T07:09:55.872Z,80.79
2023-05-05T07:12:22.452Z,81.52
2023-05-05T07:14:48.897Z,81.33
2023-05-05T07:17:15.463Z,80.60
2023-05-05T07:19:41.942Z,80.57
2023-05-05T07:22:08.345Z,80.13
2023-05-05T07:24:34.800Z,79.86
2023-05-05T07:27:12.425Z,79.88
2023-05-05T07:29:38.973Z,79.81
2023-05-05T07:32:06.640Z,79.06
2023-05-05T07:34:34.657Z,79.29
2023-05-05T07:37:01.363Z,79.37
2023-05-05T07:39:27.823Z,78.60
2023-05-05T07:42:03.686Z,77.84
2023-05-05T07:44:30.576Z,77.61
2023-05-05T07:46:57.046Z,76.86
2023-05-05T07:50:18.301Z,76.18
2023-05-05T07:53:10.806Z,76.51
2023-05-05T07:55:41.437Z,76.22
2023-05-05T07:58:08.536Z,75.89
2023-05-05T08:00:35.647Z,75.46
2023-05-05T08:03:02.141Z,75.05
2023-05-05T08:05:29.763Z,75.30
2023-05-05T08:07:56.726Z,75.82
2023-05-05T08:10:28.634Z,74.34
2023-05-05T08:12:55.120Z,72.33
2023-05-05T08:15:21.724Z,73.56
2023-05-05T08:17:50.800Z,74.27
2023-05-05T08:20:21.079Z,71.91
2023-05-05T08:22:48.022Z,72.12
2023-05-05T08:25:21.795Z,71.42
2023-05-05T08:27:48.273Z,72.64
2023-05-05T08:30:16.637Z,71.13
2023-05-05T08:32:55.158Z,69.30
2023-05-05T08:35:23.798Z,69.96
2023-05-05T08:37:53.396Z,69.16
2023-05-05T08:40:21.319Z,68.41
2023-05-05T08:42:47.914Z,69.12
2023-05-05T08:45:14.734Z,69.85
2023-05-05T08:47:43.204Z,70.62
2023-05-05T08:50:11.211Z,68.93
2023-05-05T08:52:49.818Z,70.23
2023-05-05T08:55:25.581Z,69.28
2023-05-05T08:57:57.929Z,68.90
2023-05-05T09:00:26.544Z,69.79
2023-05-05T09:02:56.222Z,68.92
2023-05-05T09:05:22.854Z,69.70
2023-05-05T09:07:50.299Z,69.03
2023-05-05T09:10:17.342Z,70.02
2023-05-05T09:12:44.205Z,69.93
2023-05-05T09:15:12.995Z,70.97
2023-05-05T09:17:40.376Z,71.33
2023-05-05T09:20:08.810Z,71.23
2023-05-05T09:22:39.165Z,70.23
2023-05-05T09:25:07.755Z,70.28
2023-05-05T09:27:45.768Z,71.20
2023-05-05T09:30:15.922Z,71.24
2023-05-05T09:32:50.083Z,71.03
2023-05-05T09:35:18.137Z,72.15
2023-05-05T09:37:45.256Z,71.27
2023-05-05T09:40:14.311Z,71.86
2023-05-05T09:42:41.257Z,71.69
2023-05-05T09:45:20.002Z,71.50
2023-05-05T09:47:47.762Z,73.01
2023-05-05T09:50:16.339Z,71.65
2023-05-05T09:52:43.306Z,70.79
2023-05-05T09:55:18.240Z,72.77
2023-05-05T09:57:44.620Z,72.35
2023-05-05T10:00:12.488Z,72.05
2023-05-05T10:02:39.627Z,72.67
2023-05-05T10:05:19.048Z,72.49
2023-05-05T10:07:47.557Z,72.73
2023-05-05T10:10:17.244Z,73.48
2023-05-05T10:12:46.252Z,72.97
2023-05-05T10:15:15.163Z,72.59
2023-05-05T10:18:02.301Z,71.92
2023-05-05T10:20:33.553Z,70.17
2023-05-05T10:23:02.479Z,75.12
2023-05-05T10:25:33.341Z,78.39
2023-05-05T10:28:01.475Z,80.35
2023-05-05T10:30:31.983Z,81.31
2023-05-05T10:33:30.318Z,82.18
2023-05-05T10:35:57.846Z,84.26
2023-05-05T10:38:28.358Z,85.03
2023-05-05T10:40:56.416Z,85.99
2023-05-05T10:43:24.259Z,86.78
2023-05-05T10:45:51.114Z,86.74
2023-05-05T10:48:39.773Z,86.40
2023-05-05T10:51:35.145Z,88.14
2023-05-05T10:54:55.728Z,87.87
2023-05-05T10:57:25.903Z,88.62
2023-05-05T10:59:52.291Z,89.32
2023-05-05T11:02:20.201Z,89.37
2023-05-05T11:05:15.220Z,89.48
2023-05-05T11:07:42.748Z,90.82
2023-05-05T11:10:11.449Z,91.28
2023-05-05T11:13:01.907Z,91.18
2023-05-05T11:15:31.388Z,91.37
2023-05-05T11:17:59.151Z,91.52
2023-05-05T11:20:40.527Z,91.54
2023-05-05T11:23:06.988Z,91.75
2023-05-05T11:25:37.204Z,92.61
2023-05-05T11:28:09.348Z,92.98
2023-05-05T11:30:59.662Z,93.20
2023-05-05T11:33:33.115Z,93.27
2023-05-05T11:36:07.566Z,93.26
2023-05-05T11:38:55.855Z,93.41
2023-05-05T11:41:31.976Z,93.68
2023-05-05T11:44:12.397Z,93.73
2023-05-05T11:47:04.421Z,93.68
2023-05-05T11:49:32.809Z,93.63
2023-05-05T11:52:06.569Z,94.04
2023-05-05T11:54:35.789Z,94.26
2023-05-05T11:57:07.619Z,93.98
2023-05-05T11:59:39.048Z,93.94
2023-05-05T12:02:05.877Z,94.20
2023-05-05T12:04:32.577Z,94.01
2023-05-05T12:06:59.412Z,94.20
2023-05-05T12:09:26.862Z,94.23
2023-05-05T12:11:55.400Z,94.34
2023-05-05T12:14:22.986Z,94.32
2023-05-05T12:17:03.407Z,94.57
2023-05-05T12:19:33.180Z,94.99
2023-05-05T12:22:00.732Z,94.96
2023-05-05T12:24:27.358Z,94.50
2023-05-05T12:26:53.789Z,94.81
2023-05-05T12:29:29.704Z,94.94
2023-05-05T12:31:57.947Z,94.83
2023-05-05T12:34:24.518Z,94.44
2023-05-05T12:36:50.945Z,94.34
2023-05-05T12:39:17.340Z,94.86
2023-05-05T12:41:44.191Z,95.15
2023-05-05T12:44:10.670Z,94.70
2023-05-05T12:46:47.405Z,95.05
2023-05-05T12:49:14.272Z,94.79
2023-05-05T12:51:56.260Z,94.96
2023-05-05T12:54:24.343Z,95.12
2023-05-05T12:56:51.212Z,95.29
2023-05-05T12:59:24.091Z,95.21
2023-05-05T13:02:01.357Z,94.54
2023-05-05T13:04:28.953Z,94.80
2023-05-05T13:07:12.980Z,95.05
2023-05-05T13:09:39.852Z,94.92
2023-05-05T13:12:08.523Z,94.66
2023-05-05T13:14:35.226Z,94.87
2023-05-05T13:17:01.765Z,94.66
2023-05-05T13:19:28.610Z,95.12
2023-05-05T13:21:56.572Z,95.11
2023-05-05T13:24:34.451Z,94.86
2023-05-05T13:27:05.574Z,94.66
2023-05-05T13:29:32.708Z,94.76
2023-05-05T13:31:59.515Z,94.53
2023-05-05T13:34:26.861Z,94.53
2023-05-05T13:36:53.321Z,94.51
2023-05-05T13:39:19.941Z,94.71
2023-05-05T13:41:46.459Z,95.08
2023-05-05T13:44:13.848Z,94.98
2023-05-05T13:46:41.692Z,95.39
2023-05-05T13:49:08.080Z,95.65
2023-05-05T13:51:34.902Z,95.34
2023-05-05T13:54:01.514Z,94.88
2023-05-05T13:56:27.936Z,94.40
2023-05-05T13:58:54.616Z,94.26
2023-05-05T14:01:21.109Z,94.54
2023-05-05T14:03:47.529Z,94.80
2023-05-05T14:06:13.914Z,94.75
2023-05-05T14:08:40.297Z,94.67
2023-05-05T14:11:06.737Z,94.93
2023-05-05T14:13:33.077Z,95.06
2023-05-05T14:15:59.536Z,95.12
2023-05-05T14:18:25.963Z,94.77
2023-05-05T14:20:52.335Z,94.56
2023-05-05T14:23:18.725Z,94.28
2023-05-05T14:25:45.256Z,94.70
2023-05-05T14:28:11.628Z,94.22
2023-05-05T14:30:38.954Z,94.49
2023-05-05T14:33:05.391Z,94.25
2023-05-05T14:35:31.832Z,93.56
2023-05-05T14:37:58.187Z,93.62
2023-05-05T14:40:24.540Z,94.45
2023-05-05T14:42:51.058Z,94.30
2023-05-05T14:45:17.468Z,94.00
2023-05-05T14:47:43.887Z,94.39
2023-05-05T14:50:10.817Z,94.05
2023-05-05T14:52:39.238Z,93.43
2023-05-05T14:55:09.674Z,93.44
2023-05-05T14:57:36.224Z,94.62
2023-05-05T15:00:02.764Z,94.70
2023-05-05T15:02:29.300Z,95.25
2023-05-05T15:04:55.764Z,95.86
2023-05-05T15:07:22.726Z,94.89
2023-05-05T15:09:49.148Z,94.88
2023-05-05T15:12:15.522Z,95.25
2023-05-05T15:14:42.208Z,95.46
2023-05-05T15:17:08.622Z,95.31
2023-05-05T15:19:34.970Z,94.00
2023-05-05T15:22:01.328Z,94.34
2023-05-05T15:24:27.708Z,93.82
2023-05-05T15:26:54.072Z,93.41
2023-05-05T15:29:21.129Z,93.73
2023-05-05T15:31:47.841Z,94.21
2023-05-05T15:34:14.478Z,93.86
2023-05-05T15:36:41.673Z,93.36
2023-05-05T15:39:08.286Z,93.99
2023-05-05T15:41:46.783Z,93.64
2023-05-05T15:44:13.400Z,93.26
2023-05-05T15:46:41.252Z,92.63
2023-05-05T15:49:07.738Z,92.86
2023-05-05T15:51:36.324Z,92.90
2023-05-05T15:54:02.779Z,92.29
2023-05-05T15:56:29.521Z,92.30
2023-05-05T15:58:56.674Z,93.09
2023-05-05T16:01:30.375Z,93.03
2023-05-05T16:04:09.906Z,93.98
2023-05-05T16:06:36.356Z,93.49
2023-05-05T16:09:03.820Z,93.81
2023-05-05T16:11:30.826Z,93.81
2023-05-05T16:14:16.534Z,94.21
2023-05-05T16:16:49.242Z,94.63
2023-05-05T16:19:23.387Z,94.69
2023-05-05T16:21:49.753Z,93.92
2023-05-05T16:24:18.455Z,93.24
2023-05-05T16:26:46.020Z,92.59
2023-05-05T16:29:13.519Z,92.89
2023-05-05T16:31:52.892Z,92.21
2023-05-05T16:34:27.533Z,91.90
2023-05-05T16:36:56.087Z,92.81
2023-05-05T16:39:23.558Z,90.79
2023-05-05T16:42:05.876Z,91.35
2023-05-05T16:44:32.301Z,91.00
2023-05-05T16:47:01.043Z,91.88
2023-05-05T16:49:27.432Z,91.89
2023-05-05T16:51:54.021Z,91.48
2023-05-05T16:54:34.743Z,92.07
2023-05-05T16:57:02.342Z,92.25
2023-05-05T16:59:35.922Z,92.92
2023-05-05T17:02:02.406Z,93.03
2023-05-05T17:04:29.988Z,93.31
2023-05-05T17:07:16.735Z,92.53
2023-05-05T17:09:43.149Z,92.67
2023-05-05T17:12:09.617Z,93.20
2023-05-05T17:14:37.213Z,92.79
2023-05-05T17:17:13.979Z,92.87
2023-05-05T17:19:57.065Z,92.60
2023-05-05T17:22:23.471Z,93.31
2023-05-05T17:24:50.824Z,93.10
2023-05-05T17:27:17.367Z,92.91
2023-05-05T17:29:43.824Z,92.76
2023-05-05T17:32:10.317Z,92.40
2023-05-05T17:34:36.915Z,92.16
2023-05-05T17:37:03.627Z,92.67
2023-05-05T17:39:30.773Z,92.35
2023-05-05T17:41:57.162Z,92.53
2023-05-05T17:44:23.702Z,92.35
2023-05-05T17:46:50.132Z,92.53
2023-05-05T17:49:16.637Z,92.02
2023-05-05T17:51:43.070Z,91.95
2023-05-05T17:54:09.441Z,92.29
2023-05-05T17:56:37.036Z,93.00
2023-05-05T17:59:03.611Z,93.02
2023-05-05T18:01:30.013Z,93.28
2023-05-05T18:03:56.446Z,93.14
2023-05-05T18:06:22.832Z,93.35
2023-05-05T18:08:49.400Z,93.48
2023-05-05T18:11:15.845Z,93.49
2023-05-05T18:13:43.145Z,93.68
2023-05-05T18:16:09.608Z,93.95
2023-05-05T18:18:36.214Z,93.86
2023-05-05T18:21:02.661Z,93.85
2023-05-05T18:23:29.039Z,94.10
2023-05-05T18:25:55.522Z,94.03
2023-05-05T18:28:21.997Z,93.99
2023-05-05T18:30:48.602Z,94.37
2023-05-05T18:33:14.982Z,94.24
2023-05-05T18:35:41.360Z,94.37
2023-05-05T18:38:20.172Z,94.09
2023-05-05T18:40:55.964Z,93.66
2023-05-05T18:43:22.527Z,94.01
2023-05-05T18:45:48.974Z,94.54
2023-05-05T18:48:15.385Z,94.39
2023-05-05T18:50:41.868Z,94.35
2023-05-05T18:53:10.714Z,94.15
2023-05-05T18:55:37.282Z,93.99
2023-05-05T18:58:03.687Z,94.51
2023-05-05T19:00:30.168Z,94.19
2023-05-05T19:02:56.812Z,94.25
2023-05-05T19:05:23.409Z,94.07
2023-05-05T19:07:49.795Z,94.13
2023-05-05T19:10:16.386Z,94.41
2023-05-05T19:12:42.901Z,94.30
2023-05-05T19:15:09.907Z,94.37
2023-05-05T19:17:36.810Z,94.10
2023-05-05T19:20:03.379Z,94.49
2023-05-05T19:22:29.758Z,94.57
2023-05-05T19:24:56.157Z,94.53
2023-05-05T19:27:22.563Z,94.19
2023-05-05T19:29:52.671Z,94.06
2023-05-05T19:32:21.120Z,94.22
2023-05-05T19:34:48.019Z,93.89
2023-05-05T19:37:14.515Z,94.09
2023-05-05T19:39:43.102Z,94.38
2023-05-05T19:42:09.708Z,94.22
2023-05-05T19:44:36.127Z,94.32
2023-05-05T19:47:02.611Z,94.71
2023-05-05T19:49:29.044Z,94.51
2023-05-05T19:51:56.989Z,94.64
2023-05-05T19:54:24.684Z,94.40
2023-05-05T19:56:51.875Z,94.10
2023-05-05T19:59:18.498Z,94.47
2023-05-05T20:01:45.317Z,93.95
2023-05-05T20:04:11.934Z,93.95
2023-05-05T20:06:38.560Z,94.04
2023-05-05T20:09:05.345Z,93.84
2023-05-05T20:11:32.007Z,94.24
2023-05-05T20:13:58.684Z,93.88
2023-05-05T20:16:25.644Z,94.31
2023-05-05T20:18:52.291Z,93.73
2023-05-05T20:21:18.993Z,94.04
2023-05-05T20:23:46.102Z,94.00
2023-05-05T20:26:13.177Z,94.25
2023-05-05T20:28:45.273Z,93.96
2023-05-05T20:31:14.931Z,94.40
2023-05-05T20:33:41.394Z,94.16
2023-05-05T20:36:07.945Z,94.25
2023-05-05T20:38:34.577Z,94.01
2023-05-05T20:41:01.326Z,94.10
2023-05-05T20:43:27.879Z,93.76
2023-05-05T20:45:54.304Z,93.93
2023-05-05T20:48:20.979Z,93.96
2023-05-05T20:50:47.468Z,94.12
2023-05-05T20:53:14.852Z,93.93
2023-05-05T20:55:41.529Z,93.87
2023-05-05T20:58:07.905Z,94.11
2023-05-05T21:00:34.544Z,94.15
2023-05-05T21:03:02.737Z,94.27
2023-05-05T21:05:29.761Z,94.19
2023-05-05T21:07:57.326Z,94.07
2023-05-05T21:10:25.016Z,93.88
2023-05-05T21:12:51.524Z,93.88
2023-05-05T21:15:18.026Z,93.64
2023-05-05T21:17:44.589Z,93.69
2023-05-05T21:20:11.877Z,93.91
2023-05-05T21:22:38.658Z,93.66
2023-05-05T21:25:16.805Z,93.66
2023-05-05T21:27:43.405Z,93.53
2023-05-05T21:30:11.454Z,93.58
2023-05-05T21:32:38.786Z,93.60
2023-05-05T21:35:06.749Z,94.12
2023-05-05T21:37:33.478Z,93.83
2023-05-05T21:39:59.893Z,93.78
2023-05-05T21:42:26.915Z,93.48
2023-05-05T21:44:53.304Z,93.47
2023-05-05T21:47:19.751Z,93.58
2023-05-05T21:49:46.166Z,93.05
2023-05-05T21:52:12.681Z,93.22
2023-05-05T21:54:39.096Z,93.39
2023-05-05T21:57:06.355Z,93.78
2023-05-05T21:59:32.768Z,93.89
2023-05-05T22:01:59.256Z,93.59
2023-05-05T22:04:25.731Z,93.29
2023-05-05T22:06:52.226Z,93.66
2023-05-05T22:09:18.778Z,93.25
2023-05-05T22:11:45.162Z,93.46
2023-05-05T22:14:11.542Z,93.20
2023-05-05T22:16:38.066Z,93.19
2023-05-05T22:19:04.585Z,93.38
2023-05-05T22:21:31.550Z,93.65
2023-05-05T22:23:57.975Z,93.44
2023-05-05T22:26:24.366Z,93.65
2023-05-05T22:28:51.053Z,93.98
2023-05-05T22:31:17.480Z,93.72
2023-05-05T22:33:44.277Z,93.70
2023-05-05T22:36:11.520Z,93.71
2023-05-05T22:38:38.031Z,94.20
2023-05-05T22:41:06.444Z,93.99
2023-05-05T22:43:32.869Z,94.49
2023-05-05T22:45:59.279Z,93.92
2023-05-05T22:48:25.724Z,94.14
2023-05-05T22:50:52.086Z,94.43
2023-05-05T22:53:18.460Z,94.58
2023-05-05T22:55:44.954Z,94.69
2023-05-05T22:58:11.554Z,94.87
2023-05-05T23:00:37.918Z,94.75
2023-05-05T23:03:04.591Z,95.38
2023-05-05T23:05:31.090Z,95.17
2023-05-05T23:07:59.924Z,95.10
2023-05-05T23:10:26.455Z,95.12
2023-05-05T23:12:53.843Z,95.61
2023-05-05T23:15:21.630Z,95.41
2023-05-05T23:17:48.177Z,95.37
2023-05-05T23:20:15.195Z,95.59
2023-05-05T23:22:41.663Z,95.91
2023-05-05T23:25:08.651Z,95.76
2023-05-05T23:27:35.222Z,95.50
2023-05-05T23:30:01.621Z,95.87
2023-05-05T23:32:28.053Z,95.28
2023-05-05T23:34:54.486Z,95.09
2023-05-05T23:37:20.919Z,95.33
2023-05-05T23:39:47.346Z,95.24
2023-05-05T23:42:13.728Z,95.19
2023-05-05T23:44:40.086Z,94.91
2023-05-05T23:47:06.455Z,94.84
2023-05-05T23:49:32.935Z,95.14
2023-05-05T23:51:59.309Z,95.26
2023-05-05T23:54:26.128Z,95.26
2023-05-05T23:56:52.491Z,95.11
2023-05-05T23:59:19.087Z,95.50
